sensor_id;sensor_type;location;lat;lon;timestamp;P1;durP1;ratioP1;P2;durP2;ratioP2
31043;SDS011;17710;52.520;13.352;2023-11-19T00:01:24;10.05;;;6.28;;
31043;SDS011;17710;52.520;13.352;2023-11-19T00:03:51;9.25;;;6.93;;
31043;SDS011;17710;52.520;13.352;2023-11-19T00:06:19;10.20;;;7.00;;
31043;SDS011;17710;52.520;13.352;2023-11-19T00:08:46;12.50;;;6.55;;
31043;SDS011;17710;52.520;13.352;2023-11-19T00:11:13;10.15;;;6.15;;
31043;SDS011;17710;52.520;13.352;2023-11-19T00:13:40;9.93;;;6.45;;
31043;SDS011;17710;52.520;13.352;2023-11-19T00:16:07;10.82;;;7.20;;
31043;SDS011;17710;52.520;13.352;2023-11-19T00:18:34;10.13;;;7.82;;
31043;SDS011;17710;52.520;13.352;2023-11-19T00:21:01;13.85;;;7.10;;
31043;SDS011;17710;52.520;13.352;2023-11-19T00:23:29;13.25;;;8.00;;
31043;SDS011;17710;52.520;13.352;2023-11-19T00:25:55;12.07;;;7.43;;
31043;SDS011;17710;52.520;13.352;2023-11-19T00:28:22;12.80;;;7.43;;
31043;SDS011;17710;52.520;13.352;2023-11-19T00:30:49;11.05;;;6.90;;
31043;SDS011;17710;52.520;13.352;2023-11-19T00:33:18;9.88;;;6.55;;
31043;SDS011;17710;52.520;13.352;2023-11-19T00:35:45;10.93;;;6.80;;
31043;SDS011;17710;52.520;13.352;2023-11-19T00:38:11;9.02;;;6.05;;
31043;SDS011;17710;52.520;13.352;2023-11-19T00:40:39;10.27;;;6.22;;
31043;SDS011;17710;52.520;13.352;2023-11-19T00:43:12;12.52;;;6.68;;
31043;SDS011;17710;52.520;13.352;2023-11-19T00:45:38;12.52;;;6.15;;
31043;SDS011;17710;52.520;13.352;2023-11-19T00:48:05;10.20;;;6.35;;
31043;SDS011;17710;52.520;13.352;2023-11-19T00:50:32;11.15;;;6.15;;
31043;SDS011;17710;52.520;13.352;2023-11-19T00:52:58;9.60;;;6.45;;
31043;SDS011;17710;52.520;13.352;2023-11-19T00:57:51;9.27;;;5.95;;
31043;SDS011;17710;52.520;13.352;2023-11-19T01:00:18;8.93;;;5.43;;
31043;SDS011;17710;52.520;13.352;2023-11-19T01:02:44;8.05;;;5.43;;
31043;SDS011;17710;52.520;13.352;2023-11-19T01:05:11;8.40;;;5.75;;
31043;SDS011;17710;52.520;13.352;2023-11-19T01:07:39;11.60;;;6.15;;
31043;SDS011;17710;52.520;13.352;2023-11-19T01:10:06;6.75;;;4.93;;
31043;SDS011;17710;52.520;13.352;2023-11-19T01:12:35;6.28;;;4.93;;
31043;SDS011;17710;52.520;13.352;2023-11-19T01:15:04;11.43;;;5.80;;
31043;SDS011;17710;52.520;13.352;2023-11-19T01:17:31;8.77;;;5.35;;
31043;SDS011;17710;52.520;13.352;2023-11-19T01:19:57;8.80;;;5.53;;
31043;SDS011;17710;52.520;13.352;2023-11-19T01:22:24;8.93;;;4.97;;
31043;SDS011;17710;52.520;13.352;2023-11-19T01:24:51;8.35;;;5.70;;
31043;SDS011;17710;52.520;13.352;2023-11-19T01:27:19;7.85;;;5.60;;
31043;SDS011;17710;52.520;13.352;2023-11-19T01:29:45;8.88;;;5.80;;
31043;SDS011;17710;52.520;13.352;2023-11-19T01:32:13;8.20;;;5.20;;
31043;SDS011;17710;52.520;13.352;2023-11-19T01:34:40;7.75;;;5.38;;
31043;SDS011;17710;52.520;13.352;2023-11-19T01:37:06;8.05;;;4.97;;
31043;SDS011;17710;52.520;13.352;2023-11-19T01:39:34;9.38;;;5.45;;
31043;SDS011;17710;52.520;13.352;2023-11-19T01:42:00;8.70;;;5.30;;
31043;SDS011;17710;52.520;13.352;2023-11-19T01:44:27;9.32;;;5.07;;
31043;SDS011;17710;52.520;13.352;2023-11-19T01:46:53;10.60;;;5.75;;
31043;SDS011;17710;52.520;13.352;2023-11-19T01:49:21;8.30;;;4.97;;
31043;SDS011;17710;52.520;13.352;2023-11-19T01:51:48;10.57;;;5.22;;
31043;SDS011;17710;52.520;13.352;2023-11-19T01:54:15;10.55;;;5.50;;
31043;SDS011;17710;52.520;13.352;2023-11-19T01:56:42;9.07;;;5.47;;
31043;SDS011;17710;52.520;13.352;2023-11-19T01:59:09;9.98;;;6.40;;
31043;SDS011;17710;52.520;13.352;2023-11-19T02:01:38;7.95;;;5.97;;
31043;SDS011;17710;52.520;13.352;2023-11-19T02:04:06;12.05;;;6.25;;
31043;SDS011;17710;52.520;13.352;2023-11-19T02:06:34;7.40;;;5.05;;
31043;SDS011;17710;52.520;13.352;2023-11-19T02:09:03;8.60;;;5.55;;
31043;SDS011;17710;52.520;13.352;2023-11-19T02:11:32;7.63;;;5.72;;
31043;SDS011;17710;52.520;13.352;2023-11-19T02:14:00;8.07;;;5.47;;
31043;SDS011;17710;52.520;13.352;2023-11-19T02:16:29;8.02;;;5.25;;
31043;SDS011;17710;52.520;13.352;2023-11-19T02:18:55;7.95;;;5.35;;
31043;SDS011;17710;52.520;13.352;2023-11-19T02:21:21;7.65;;;5.45;;
31043;SDS011;17710;52.520;13.352;2023-11-19T02:23:49;8.73;;;5.25;;
31043;SDS011;17710;52.520;13.352;2023-11-19T02:26:17;9.90;;;5.30;;
31043;SDS011;17710;52.520;13.352;2023-11-19T02:28:49;8.10;;;5.53;;
31043;SDS011;17710;52.520;13.352;2023-11-19T02:31:15;7.55;;;5.00;;
31043;SDS011;17710;52.520;13.352;2023-11-19T02:33:44;8.25;;;4.88;;
31043;SDS011;17710;52.520;13.352;2023-11-19T02:36:10;7.07;;;5.63;;
31043;SDS011;17710;52.520;13.352;2023-11-19T02:38:37;8.57;;;5.85;;
31043;SDS011;17710;52.520;13.352;2023-11-19T02:41:04;9.23;;;5.03;;
31043;SDS011;17710;52.520;13.352;2023-11-19T02:43:31;7.90;;;5.00;;
31043;SDS011;17710;52.520;13.352;2023-11-19T02:46:00;7.88;;;4.80;;
31043;SDS011;17710;52.520;13.352;2023-11-19T02:48:27;8.98;;;5.40;;
31043;SDS011;17710;52.520;13.352;2023-11-19T02:50:53;6.68;;;4.78;;
31043;SDS011;17710;52.520;13.352;2023-11-19T02:53:23;9.20;;;5.18;;
31043;SDS011;17710;52.520;13.352;2023-11-19T02:55:50;6.57;;;4.60;;
31043;SDS011;17710;52.520;13.352;2023-11-19T02:58:16;7.65;;;4.45;;
31043;SDS011;17710;52.520;13.352;2023-11-19T03:00:48;6.82;;;4.18;;
31043;SDS011;17710;52.520;13.352;2023-11-19T03:03:23;7.03;;;4.25;;
31043;SDS011;17710;52.520;13.352;2023-11-19T03:05:53;8.88;;;4.80;;
31043;SDS011;17710;52.520;13.352;2023-11-19T03:08:20;6.57;;;3.95;;
31043;SDS011;17710;52.520;13.352;2023-11-19T03:10:47;5.80;;;3.90;;
31043;SDS011;17710;52.520;13.352;2023-11-19T03:13:14;5.10;;;3.92;;
31043;SDS011;17710;52.520;13.352;2023-11-19T03:15:42;5.22;;;4.00;;
31043;SDS011;17710;52.520;13.352;2023-11-19T03:18:08;6.45;;;4.32;;
31043;SDS011;17710;52.520;13.352;2023-11-19T03:20:36;6.63;;;3.95;;
31043;SDS011;17710;52.520;13.352;2023-11-19T03:23:03;4.75;;;3.95;;
31043;SDS011;17710;52.520;13.352;2023-11-19T03:25:29;6.80;;;4.40;;
31043;SDS011;17710;52.520;13.352;2023-11-19T03:27:58;5.13;;;4.00;;
31043;SDS011;17710;52.520;13.352;2023-11-19T03:30:25;7.10;;;3.83;;
31043;SDS011;17710;52.520;13.352;2023-11-19T03:32:53;5.70;;;3.92;;
31043;SDS011;17710;52.520;13.352;2023-11-19T03:35:20;7.70;;;4.85;;
31043;SDS011;17710;52.520;13.352;2023-11-19T03:37:47;6.45;;;4.70;;
31043;SDS011;17710;52.520;13.352;2023-11-19T03:40:14;7.05;;;4.53;;
31043;SDS011;17710;52.520;13.352;2023-11-19T03:42:40;8.05;;;4.75;;
31043;SDS011;17710;52.520;13.352;2023-11-19T03:45:07;8.90;;;4.95;;
31043;SDS011;17710;52.520;13.352;2023-11-19T03:47:34;9.68;;;5.40;;
31043;SDS011;17710;52.520;13.352;2023-11-19T03:50:01;7.75;;;5.30;;
31043;SDS011;17710;52.520;13.352;2023-11-19T03:52:28;9.77;;;5.72;;
31043;SDS011;17710;52.520;13.352;2023-11-19T03:54:55;12.07;;;5.22;;
31043;SDS011;17710;52.520;13.352;2023-11-19T03:57:22;8.85;;;5.47;;
31043;SDS011;17710;52.520;13.352;2023-11-19T03:59:48;8.40;;;4.80;;
31043;SDS011;17710;52.520;13.352;2023-11-19T04:02:15;10.70;;;5.68;;
31043;SDS011;17710;52.520;13.352;2023-11-19T04:04:42;9.65;;;5.45;;
31043;SDS011;17710;52.520;13.352;2023-11-19T04:07:08;7.38;;;5.15;;
31043;SDS011;17710;52.520;13.352;2023-11-19T04:09:35;6.88;;;5.15;;
31043;SDS011;17710;52.520;13.352;2023-11-19T04:12:04;9.10;;;6.03;;
31043;SDS011;17710;52.520;13.352;2023-11-19T04:14:31;10.95;;;5.85;;
31043;SDS011;17710;52.520;13.352;2023-11-19T04:16:58;8.23;;;5.75;;
31043;SDS011;17710;52.520;13.352;2023-11-19T04:19:24;7.70;;;5.57;;
31043;SDS011;17710;52.520;13.352;2023-11-19T04:21:51;8.10;;;5.93;;
31043;SDS011;17710;52.520;13.352;2023-11-19T04:24:17;9.70;;;5.65;;
31043;SDS011;17710;52.520;13.352;2023-11-19T04:26:44;8.55;;;5.57;;
31043;SDS011;17710;52.520;13.352;2023-11-19T04:29:13;7.97;;;6.20;;
31043;SDS011;17710;52.520;13.352;2023-11-19T04:31:42;7.40;;;5.25;;
31043;SDS011;17710;52.520;13.352;2023-11-19T04:34:09;8.82;;;5.90;;
31043;SDS011;17710;52.520;13.352;2023-11-19T04:36:36;7.55;;;5.45;;
31043;SDS011;17710;52.520;13.352;2023-11-19T04:39:02;10.23;;;5.50;;
31043;SDS011;17710;52.520;13.352;2023-11-19T04:41:33;8.93;;;5.32;;
31043;SDS011;17710;52.520;13.352;2023-11-19T04:44:00;10.15;;;5.82;;
31043;SDS011;17710;52.520;13.352;2023-11-19T04:46:27;8.52;;;6.00;;
31043;SDS011;17710;52.520;13.352;2023-11-19T04:48:54;7.68;;;5.55;;
31043;SDS011;17710;52.520;13.352;2023-11-19T04:51:20;7.60;;;5.28;;
31043;SDS011;17710;52.520;13.352;2023-11-19T04:53:46;10.07;;;6.07;;
31043;SDS011;17710;52.520;13.352;2023-11-19T04:56:13;8.95;;;6.38;;
31043;SDS011;17710;52.520;13.352;2023-11-19T04:58:40;11.50;;;6.68;;
31043;SDS011;17710;52.520;13.352;2023-11-19T05:01:12;9.32;;;6.50;;
31043;SDS011;17710;52.520;13.352;2023-11-19T05:03:41;12.30;;;7.93;;
31043;SDS011;17710;52.520;13.352;2023-11-19T05:06:08;9.07;;;6.03;;
31043;SDS011;17710;52.520;13.352;2023-11-19T05:08:35;10.82;;;6.30;;
31043;SDS011;17710;52.520;13.352;2023-11-19T05:11:02;10.05;;;6.20;;
31043;SDS011;17710;52.520;13.352;2023-11-19T05:13:28;7.43;;;5.82;;
31043;SDS011;17710;52.520;13.352;2023-11-19T05:15:55;8.68;;;6.10;;
31043;SDS011;17710;52.520;13.352;2023-11-19T05:18:21;14.07;;;7.20;;
31043;SDS011;17710;52.520;13.352;2023-11-19T05:20:49;9.90;;;6.80;;
31043;SDS011;17710;52.520;13.352;2023-11-19T05:23:16;12.05;;;6.90;;
31043;SDS011;17710;52.520;13.352;2023-11-19T05:25:42;9.13;;;6.10;;
31043;SDS011;17710;52.520;13.352;2023-11-19T05:28:10;8.52;;;6.32;;
31043;SDS011;17710;52.520;13.352;2023-11-19T05:30:39;8.05;;;5.78;;
31043;SDS011;17710;52.520;13.352;2023-11-19T05:33:05;11.23;;;6.10;;
31043;SDS011;17710;52.520;13.352;2023-11-19T05:35:33;9.48;;;6.03;;
31043;SDS011;17710;52.520;13.352;2023-11-19T05:38:01;7.28;;;5.45;;
31043;SDS011;17710;52.520;13.352;2023-11-19T05:40:28;8.40;;;5.93;;
31043;SDS011;17710;52.520;13.352;2023-11-19T05:42:55;8.60;;;6.10;;
31043;SDS011;17710;52.520;13.352;2023-11-19T05:45:21;7.53;;;5.20;;
31043;SDS011;17710;52.520;13.352;2023-11-19T05:47:47;6.90;;;5.25;;
31043;SDS011;17710;52.520;13.352;2023-11-19T05:50:14;7.88;;;5.82;;
31043;SDS011;17710;52.520;13.352;2023-11-19T05:52:40;8.23;;;5.57;;
31043;SDS011;17710;52.520;13.352;2023-11-19T05:55:08;10.77;;;6.13;;
31043;SDS011;17710;52.520;13.352;2023-11-19T05:57:35;7.20;;;5.60;;
31043;SDS011;17710;52.520;13.352;2023-11-19T06:00:02;7.95;;;5.78;;
31043;SDS011;17710;52.520;13.352;2023-11-19T06:02:32;6.72;;;5.30;;
31043;SDS011;17710;52.520;13.352;2023-11-19T06:04:58;8.80;;;5.47;;
31043;SDS011;17710;52.520;13.352;2023-11-19T06:07:25;8.00;;;5.88;;
31043;SDS011;17710;52.520;13.352;2023-11-19T06:09:51;8.57;;;5.35;;
31043;SDS011;17710;52.520;13.352;2023-11-19T06:12:19;7.50;;;5.35;;
31043;SDS011;17710;52.520;13.352;2023-11-19T06:14:46;6.90;;;5.03;;
31043;SDS011;17710;52.520;13.352;2023-11-19T06:17:12;7.30;;;5.10;;
31043;SDS011;17710;52.520;13.352;2023-11-19T06:19:39;7.47;;;4.97;;
31043;SDS011;17710;52.520;13.352;2023-11-19T06:22:05;6.78;;;5.45;;
31043;SDS011;17710;52.520;13.352;2023-11-19T06:24:31;9.25;;;5.82;;
31043;SDS011;17710;52.520;13.352;2023-11-19T06:26:58;7.35;;;5.55;;
31043;SDS011;17710;52.520;13.352;2023-11-19T06:29:25;6.70;;;5.28;;
31043;SDS011;17710;52.520;13.352;2023-11-19T06:31:52;6.63;;;5.07;;
31043;SDS011;17710;52.520;13.352;2023-11-19T06:34:18;8.05;;;5.32;;
31043;SDS011;17710;52.520;13.352;2023-11-19T06:36:45;7.43;;;5.47;;
31043;SDS011;17710;52.520;13.352;2023-11-19T06:39:16;6.40;;;5.28;;
31043;SDS011;17710;52.520;13.352;2023-11-19T06:41:44;5.53;;;4.63;;
31043;SDS011;17710;52.520;13.352;2023-11-19T06:44:11;6.63;;;4.97;;
31043;SDS011;17710;52.520;13.352;2023-11-19T06:46:38;7.00;;;4.95;;
31043;SDS011;17710;52.520;13.352;2023-11-19T06:49:05;8.95;;;4.78;;
31043;SDS011;17710;52.520;13.352;2023-11-19T06:51:32;6.20;;;4.70;;
31043;SDS011;17710;52.520;13.352;2023-11-19T06:53:59;5.80;;;4.90;;
31043;SDS011;17710;52.520;13.352;2023-11-19T06:56:31;5.25;;;4.68;;
31043;SDS011;17710;52.520;13.352;2023-11-19T06:58:57;6.95;;;5.15;;
31043;SDS011;17710;52.520;13.352;2023-11-19T07:01:24;9.52;;;4.97;;
31043;SDS011;17710;52.520;13.352;2023-11-19T07:03:52;5.30;;;4.50;;
31043;SDS011;17710;52.520;13.352;2023-11-19T07:06:18;7.40;;;5.03;;
31043;SDS011;17710;52.520;13.352;2023-11-19T07:08:44;7.80;;;5.35;;
31043;SDS011;17710;52.520;13.352;2023-11-19T07:11:11;5.53;;;4.40;;
31043;SDS011;17710;52.520;13.352;2023-11-19T07:13:39;6.15;;;4.07;;
31043;SDS011;17710;52.520;13.352;2023-11-19T07:16:06;5.25;;;4.22;;
31043;SDS011;17710;52.520;13.352;2023-11-19T07:18:34;4.88;;;4.25;;
31043;SDS011;17710;52.520;13.352;2023-11-19T07:21:03;5.65;;;3.70;;
31043;SDS011;17710;52.520;13.352;2023-11-19T07:23:30;5.03;;;4.45;;
31043;SDS011;17710;52.520;13.352;2023-11-19T07:25:59;4.63;;;4.13;;
31043;SDS011;17710;52.520;13.352;2023-11-19T07:28:25;4.38;;;3.97;;
31043;SDS011;17710;52.520;13.352;2023-11-19T07:30:53;5.72;;;4.13;;
31043;SDS011;17710;52.520;13.352;2023-11-19T07:33:21;6.57;;;4.28;;
31043;SDS011;17710;52.520;13.352;2023-11-19T07:35:47;6.72;;;4.80;;
31043;SDS011;17710;52.520;13.352;2023-11-19T07:38:15;5.25;;;4.25;;
31043;SDS011;17710;52.520;13.352;2023-11-19T07:40:42;6.10;;;4.43;;
31043;SDS011;17710;52.520;13.352;2023-11-19T07:43:08;6.70;;;4.07;;
31043;SDS011;17710;52.520;13.352;2023-11-19T07:45:35;5.38;;;4.55;;
31043;SDS011;17710;52.520;13.352;2023-11-19T07:48:02;4.65;;;3.97;;
31043;SDS011;17710;52.520;13.352;2023-11-19T07:50:28;4.68;;;4.03;;
31043;SDS011;17710;52.520;13.352;2023-11-19T07:52:56;4.22;;;3.58;;
31043;SDS011;17710;52.520;13.352;2023-11-19T07:55:24;5.53;;;4.18;;
31043;SDS011;17710;52.520;13.352;2023-11-19T07:57:51;4.38;;;3.92;;
31043;SDS011;17710;52.520;13.352;2023-11-19T08:00:17;5.18;;;3.65;;
31043;SDS011;17710;52.520;13.352;2023-11-19T08:02:44;4.95;;;4.22;;
31043;SDS011;17710;52.520;13.352;2023-11-19T08:05:11;5.63;;;4.22;;
31043;SDS011;17710;52.520;13.352;2023-11-19T08:07:37;6.78;;;4.45;;
31043;SDS011;17710;52.520;13.352;2023-11-19T08:10:04;6.10;;;4.18;;
31043;SDS011;17710;52.520;13.352;2023-11-19T08:12:36;6.05;;;4.07;;
31043;SDS011;17710;52.520;13.352;2023-11-19T08:15:02;8.20;;;4.43;;
31043;SDS011;17710;52.520;13.352;2023-11-19T08:17:29;4.95;;;4.20;;
31043;SDS011;17710;52.520;13.352;2023-11-19T08:19:56;6.30;;;4.13;;
31043;SDS011;17710;52.520;13.352;2023-11-19T08:22:22;5.63;;;4.38;;
31043;SDS011;17710;52.520;13.352;2023-11-19T08:24:49;5.90;;;3.95;;
31043;SDS011;17710;52.520;13.352;2023-11-19T08:27:15;4.70;;;4.05;;
31043;SDS011;17710;52.520;13.352;2023-11-19T08:29:43;4.68;;;4.03;;
31043;SDS011;17710;52.520;13.352;2023-11-19T08:32:09;5.78;;;4.40;;
31043;SDS011;17710;52.520;13.352;2023-11-19T08:34:36;5.15;;;4.13;;
31043;SDS011;17710;52.520;13.352;2023-11-19T08:37:02;5.63;;;4.20;;
31043;SDS011;17710;52.520;13.352;2023-11-19T08:39:29;8.10;;;4.22;;
31043;SDS011;17710;52.520;13.352;2023-11-19T08:41:56;6.93;;;4.40;;
31043;SDS011;17710;52.520;13.352;2023-11-19T08:44:22;5.35;;;4.38;;
31043;SDS011;17710;52.520;13.352;2023-11-19T08:46:51;4.78;;;4.28;;
31043;SDS011;17710;52.520;13.352;2023-11-19T08:49:18;6.88;;;4.50;;
31043;SDS011;17710;52.520;13.352;2023-11-19T08:51:44;5.80;;;4.25;;
31043;SDS011;17710;52.520;13.352;2023-11-19T08:54:11;5.93;;;4.93;;
31043;SDS011;17710;52.520;13.352;2023-11-19T08:56:38;5.80;;;4.38;;
31043;SDS011;17710;52.520;13.352;2023-11-19T08:59:04;5.65;;;4.38;;
31043;SDS011;17710;52.520;13.352;2023-11-19T09:01:31;6.40;;;4.25;;
31043;SDS011;17710;52.520;13.352;2023-11-19T09:03:59;5.10;;;4.10;;
31043;SDS011;17710;52.520;13.352;2023-11-19T09:06:25;6.43;;;4.50;;
31043;SDS011;17710;52.520;13.352;2023-11-19T09:08:52;4.72;;;4.13;;
31043;SDS011;17710;52.520;13.352;2023-11-19T09:11:18;7.35;;;4.68;;
31043;SDS011;17710;52.520;13.352;2023-11-19T09:13:45;5.10;;;4.13;;
31043;SDS011;17710;52.520;13.352;2023-11-19T09:16:12;4.45;;;3.83;;
31043;SDS011;17710;52.520;13.352;2023-11-19T09:18:38;5.90;;;3.78;;
31043;SDS011;17710;52.520;13.352;2023-11-19T09:21:06;6.43;;;4.00;;
31043;SDS011;17710;52.520;13.352;2023-11-19T09:23:33;5.72;;;4.20;;
31043;SDS011;17710;52.520;13.352;2023-11-19T09:26:04;5.82;;;4.03;;
31043;SDS011;17710;52.520;13.352;2023-11-19T09:28:31;4.20;;;3.38;;
31043;SDS011;17710;52.520;13.352;2023-11-19T09:30:58;6.85;;;3.65;;
31043;SDS011;17710;52.520;13.352;2023-11-19T09:33:24;5.78;;;3.90;;
31043;SDS011;17710;52.520;13.352;2023-11-19T09:35:51;5.50;;;3.22;;
31043;SDS011;17710;52.520;13.352;2023-11-19T09:38:19;4.32;;;3.13;;
31043;SDS011;17710;52.520;13.352;2023-11-19T09:40:51;4.18;;;3.40;;
31043;SDS011;17710;52.520;13.352;2023-11-19T09:43:22;4.63;;;3.13;;
31043;SDS011;17710;52.520;13.352;2023-11-19T09:45:49;6.97;;;3.30;;
31043;SDS011;17710;52.520;13.352;2023-11-19T09:48:17;4.13;;;2.67;;
31043;SDS011;17710;52.520;13.352;2023-11-19T09:50:45;3.97;;;3.08;;
31043;SDS011;17710;52.520;13.352;2023-11-19T09:53:13;4.82;;;2.90;;
31043;SDS011;17710;52.520;13.352;2023-11-19T09:55:41;5.13;;;3.00;;
31043;SDS011;17710;52.520;13.352;2023-11-19T09:58:08;6.53;;;2.70;;
31043;SDS011;17710;52.520;13.352;2023-11-19T10:00:46;4.32;;;2.65;;
31043;SDS011;17710;52.520;13.352;2023-11-19T10:03:14;2.53;;;1.60;;
31043;SDS011;17710;52.520;13.352;2023-11-19T10:05:40;3.28;;;2.10;;
31043;SDS011;17710;52.520;13.352;2023-11-19T10:08:07;4.90;;;1.90;;
31043;SDS011;17710;52.520;13.352;2023-11-19T10:10:34;6.20;;;2.15;;
31043;SDS011;17710;52.520;13.352;2023-11-19T10:13:02;5.70;;;2.08;;
31043;SDS011;17710;52.520;13.352;2023-11-19T10:15:29;7.65;;;2.17;;
31043;SDS011;17710;52.520;13.352;2023-11-19T10:18:01;6.03;;;2.13;;
31043;SDS011;17710;52.520;13.352;2023-11-19T10:20:29;3.25;;;1.90;;
31043;SDS011;17710;52.520;13.352;2023-11-19T10:23:01;6.25;;;1.73;;
31043;SDS011;17710;52.520;13.352;2023-11-19T10:25:28;5.68;;;1.90;;
31043;SDS011;17710;52.520;13.352;2023-11-19T10:27:56;1.88;;;1.27;;
31043;SDS011;17710;52.520;13.352;2023-11-19T10:30:24;9.27;;;2.03;;
31043;SDS011;17710;52.520;13.352;2023-11-19T10:33:04;7.57;;;1.55;;
31043;SDS011;17710;52.520;13.352;2023-11-19T10:35:31;4.35;;;2.08;;
31043;SDS011;17710;52.520;13.352;2023-11-19T10:37:59;6.95;;;1.42;;
31043;SDS011;17710;52.520;13.352;2023-11-19T10:40:37;6.00;;;1.95;;
31043;SDS011;17710;52.520;13.352;2023-11-19T10:43:04;6.05;;;1.50;;
31043;SDS011;17710;52.520;13.352;2023-11-19T10:45:34;10.68;;;1.80;;
31043;SDS011;17710;52.520;13.352;2023-11-19T10:48:00;8.13;;;1.75;;
31043;SDS011;17710;52.520;13.352;2023-11-19T10:50:29;4.72;;;1.63;;
31043;SDS011;17710;52.520;13.352;2023-11-19T10:52:56;11.18;;;2.35;;
31043;SDS011;17710;52.520;13.352;2023-11-19T10:55:26;7.00;;;1.80;;
31043;SDS011;17710;52.520;13.352;2023-11-19T10:57:53;11.20;;;2.38;;
31043;SDS011;17710;52.520;13.352;2023-11-19T11:00:22;7.38;;;2.53;;
31043;SDS011;17710;52.520;13.352;2023-11-19T11:02:53;8.68;;;1.73;;
31043;SDS011;17710;52.520;13.352;2023-11-19T11:05:23;8.70;;;1.88;;
31043;SDS011;17710;52.520;13.352;2023-11-19T11:07:52;11.50;;;2.30;;
31043;SDS011;17710;52.520;13.352;2023-11-19T11:10:21;12.07;;;2.15;;
31043;SDS011;17710;52.520;13.352;2023-11-19T11:12:52;13.25;;;2.97;;
31043;SDS011;17710;52.520;13.352;2023-11-19T11:15:23;14.52;;;3.47;;
31043;SDS011;17710;52.520;13.352;2023-11-19T11:17:54;16.55;;;2.85;;
31043;SDS011;17710;52.520;13.352;2023-11-19T11:20:25;12.88;;;2.20;;
31043;SDS011;17710;52.520;13.352;2023-11-19T11:22:57;12.20;;;2.30;;
31043;SDS011;17710;52.520;13.352;2023-11-19T11:25:40;13.35;;;2.33;;
31043;SDS011;17710;52.520;13.352;2023-11-19T11:28:24;18.83;;;2.80;;
31043;SDS011;17710;52.520;13.352;2023-11-19T11:31:01;17.38;;;2.88;;
31043;SDS011;17710;52.520;13.352;2023-11-19T11:33:41;21.13;;;2.95;;
31043;SDS011;17710;52.520;13.352;2023-11-19T11:36:25;13.85;;;3.45;;
31043;SDS011;17710;52.520;13.352;2023-11-19T11:38:52;15.77;;;3.20;;
31043;SDS011;17710;52.520;13.352;2023-11-19T11:41:22;18.73;;;3.28;;
31043;SDS011;17710;52.520;13.352;2023-11-19T11:43:51;17.15;;;2.95;;
31043;SDS011;17710;52.520;13.352;2023-11-19T11:49:30;16.13;;;2.92;;
31043;SDS011;17710;52.520;13.352;2023-11-19T11:52:00;14.55;;;3.15;;
31043;SDS011;17710;52.520;13.352;2023-11-19T11:54:28;17.73;;;2.97;;
31043;SDS011;17710;52.520;13.352;2023-11-19T11:57:08;20.05;;;3.55;;
31043;SDS011;17710;52.520;13.352;2023-11-19T11:59:37;22.20;;;3.03;;
31043;SDS011;17710;52.520;13.352;2023-11-19T12:02:09;17.63;;;2.67;;
31043;SDS011;17710;52.520;13.352;2023-11-19T12:04:38;20.85;;;3.92;;
31043;SDS011;17710;52.520;13.352;2023-11-19T12:07:05;18.70;;;3.13;;
31043;SDS011;17710;52.520;13.352;2023-11-19T12:09:33;21.13;;;3.95;;
31043;SDS011;17710;52.520;13.352;2023-11-19T12:12:17;24.35;;;3.45;;
31043;SDS011;17710;52.520;13.352;2023-11-19T12:15:00;21.52;;;2.92;;
31043;SDS011;17710;52.520;13.352;2023-11-19T12:17:46;28.45;;;3.30;;
31043;SDS011;17710;52.520;13.352;2023-11-19T12:20:16;20.75;;;2.92;;
31043;SDS011;17710;52.520;13.352;2023-11-19T12:22:44;24.70;;;3.55;;
31043;SDS011;17710;52.520;13.352;2023-11-19T12:25:14;20.08;;;3.30;;
31043;SDS011;17710;52.520;13.352;2023-11-19T12:27:43;21.73;;;3.40;;
31043;SDS011;17710;52.520;13.352;2023-11-19T12:30:11;25.88;;;4.03;;
31043;SDS011;17710;52.520;13.352;2023-11-19T12:32:39;22.17;;;4.22;;
31043;SDS011;17710;52.520;13.352;2023-11-19T12:35:10;18.70;;;2.95;;
31043;SDS011;17710;52.520;13.352;2023-11-19T12:37:45;20.80;;;3.25;;
31043;SDS011;17710;52.520;13.352;2023-11-19T12:40:15;18.85;;;3.40;;
31043;SDS011;17710;52.520;13.352;2023-11-19T12:42:43;25.10;;;3.78;;
31043;SDS011;17710;52.520;13.352;2023-11-19T12:45:10;27.45;;;3.38;;
31043;SDS011;17710;52.520;13.352;2023-11-19T12:47:37;19.30;;;4.05;;
31043;SDS011;17710;52.520;13.352;2023-11-19T12:50:04;27.40;;;4.35;;
31043;SDS011;17710;52.520;13.352;2023-11-19T12:52:31;20.92;;;3.80;;
31043;SDS011;17710;52.520;13.352;2023-11-19T12:54:59;20.58;;;4.05;;
31043;SDS011;17710;52.520;13.352;2023-11-19T12:57:36;30.25;;;5.35;;
31043;SDS011;17710;52.520;13.352;2023-11-19T13:00:03;22.02;;;3.72;;
31043;SDS011;17710;52.520;13.352;2023-11-19T13:02:44;28.67;;;4.45;;
31043;SDS011;17710;52.520;13.352;2023-11-19T13:05:24;26.67;;;4.50;;
31043;SDS011;17710;52.520;13.352;2023-11-19T13:08:01;27.17;;;3.72;;
31043;SDS011;17710;52.520;13.352;2023-11-19T13:10:33;34.13;;;4.53;;
31043;SDS011;17710;52.520;13.352;2023-11-19T13:13:01;32.92;;;4.03;;
31043;SDS011;17710;52.520;13.352;2023-11-19T13:15:28;23.30;;;4.05;;
31043;SDS011;17710;52.520;13.352;2023-11-19T13:17:55;29.70;;;4.57;;
31043;SDS011;17710;52.520;13.352;2023-11-19T13:20:21;26.52;;;4.55;;
31043;SDS011;17710;52.520;13.352;2023-11-19T13:22:54;32.22;;;6.10;;
31043;SDS011;17710;52.520;13.352;2023-11-19T13:25:22;26.75;;;3.63;;
31043;SDS011;17710;52.520;13.352;2023-11-19T13:27:50;30.80;;;4.72;;
31043;SDS011;17710;52.520;13.352;2023-11-19T13:30:16;25.60;;;4.45;;
31043;SDS011;17710;52.520;13.352;2023-11-19T13:32:43;21.67;;;3.60;;
31043;SDS011;17710;52.520;13.352;2023-11-19T13:35:11;30.02;;;4.43;;
31043;SDS011;17710;52.520;13.352;2023-11-19T13:37:38;22.10;;;3.63;;
31043;SDS011;17710;52.520;13.352;2023-11-19T13:40:05;21.92;;;3.83;;
31043;SDS011;17710;52.520;13.352;2023-11-19T13:42:34;27.27;;;3.60;;
31043;SDS011;17710;52.520;13.352;2023-11-19T13:45:03;32.13;;;4.53;;
31043;SDS011;17710;52.520;13.352;2023-11-19T13:47:30;35.58;;;5.55;;
31043;SDS011;17710;52.520;13.352;2023-11-19T13:49:57;23.98;;;4.80;;
31043;SDS011;17710;52.520;13.352;2023-11-19T13:52:24;25.98;;;4.07;;
31043;SDS011;17710;52.520;13.352;2023-11-19T13:54:51;18.60;;;3.75;;
31043;SDS011;17710;52.520;13.352;2023-11-19T13:57:17;28.25;;;4.13;;
31043;SDS011;17710;52.520;13.352;2023-11-19T13:59:44;25.42;;;4.00;;
31043;SDS011;17710;52.520;13.352;2023-11-19T14:02:12;28.20;;;4.30;;
31043;SDS011;17710;52.520;13.352;2023-11-19T14:04:39;28.55;;;4.88;;
31043;SDS011;17710;52.520;13.352;2023-11-19T14:07:06;26.50;;;4.13;;
31043;SDS011;17710;52.520;13.352;2023-11-19T14:09:33;31.98;;;5.30;;
31043;SDS011;17710;52.520;13.352;2023-11-19T14:12:00;22.30;;;3.92;;
31043;SDS011;17710;52.520;13.352;2023-11-19T14:14:28;28.67;;;4.40;;
31043;SDS011;17710;52.520;13.352;2023-11-19T14:16:54;30.00;;;3.90;;
31043;SDS011;17710;52.520;13.352;2023-11-19T14:19:25;29.77;;;5.05;;
31043;SDS011;17710;52.520;13.352;2023-11-19T14:21:52;22.95;;;4.20;;
31043;SDS011;17710;52.520;13.352;2023-11-19T14:24:18;33.78;;;4.35;;
31043;SDS011;17710;52.520;13.352;2023-11-19T14:26:45;32.28;;;4.28;;
31043;SDS011;17710;52.520;13.352;2023-11-19T14:29:12;28.00;;;4.68;;
31043;SDS011;17710;52.520;13.352;2023-11-19T14:31:38;23.35;;;4.18;;
31043;SDS011;17710;52.520;13.352;2023-11-19T14:34:06;29.27;;;4.20;;
31043;SDS011;17710;52.520;13.352;2023-11-19T14:36:34;34.17;;;4.88;;
31043;SDS011;17710;52.520;13.352;2023-11-19T14:39:00;31.02;;;4.32;;
31043;SDS011;17710;52.520;13.352;2023-11-19T14:41:27;36.97;;;4.88;;